Terminal Aerodrome Forecast
Issued by NWS

Home | Current Version | Previous Version | Text Only | Print | Product List | Glossary On
Versions: 1 2 3 4 5 6 7 8 9 10 11 12 13 14 15 16 17 18 19 20 21 22 23 24 25 26 27 28 29 30 31 32 33 34 35 36
735
FTUS43 KSGF 210449 AAC
TAFJLN
TAF AMD
KJLN 210449Z 2105/2124 36013KT P6SM OVC009
     FM210600 02010KT P6SM OVC015
     FM211300 04012KT P6SM OVC015=

USA.gov is the U.S. government's official web portal to all federal, state and local government web resources and services.